sensor_id;sensor_type;location;lat;lon;timestamp;pressure;altitude;pressure_sealevel;temperature;humidity
57847;BME280;43675;50.030;21.952;2023-02-19T00:01:31;98230.92;;;5.95;81.14
57847;BME280;43675;50.030;21.952;2023-02-19T00:04:02;98225.25;;;5.95;81.23
57847;BME280;43675;50.030;21.952;2023-02-19T00:06:30;98222.02;;;5.93;81.09
57847;BME280;43675;50.030;21.952;2023-02-19T00:08:57;98228.06;;;5.91;81.11
57847;BME280;43675;50.030;21.952;2023-02-19T00:11:28;98232.85;;;5.90;81.09
57847;BME280;43675;50.030;21.952;2023-02-19T00:13:56;98235.02;;;5.90;80.99
57847;BME280;43675;50.030;21.952;2023-02-19T00:16:23;98241.67;;;5.92;81.08
57847;BME280;43675;50.030;21.952;2023-02-19T00:18:51;98246.30;;;5.90;80.86
57847;BME280;43675;50.030;21.952;2023-02-19T00:21:18;98243.02;;;6.01;80.48
57847;BME280;43675;50.030;21.952;2023-02-19T00:23:53;98235.53;;;6.12;80.05
57847;BME280;43675;50.030;21.952;2023-02-19T00:26:20;98242.98;;;6.19;79.61
57847;BME280;43675;50.030;21.952;2023-02-19T00:28:48;98259.30;;;6.22;79.27
57847;BME280;43675;50.030;21.952;2023-02-19T00:31:21;98267.02;;;6.24;79.01
57847;BME280;43675;50.030;21.952;2023-02-19T00:33:50;98270.02;;;6.24;78.94
57847;BME280;43675;50.030;21.952;2023-02-19T00:36:18;98271.70;;;6.26;78.81
57847;BME280;43675;50.030;21.952;2023-02-19T00:38:45;98268.05;;;6.24;78.75
57847;BME280;43675;50.030;21.952;2023-02-19T00:41:13;98272.05;;;6.22;78.58
57847;BME280;43675;50.030;21.952;2023-02-19T00:43:40;98274.53;;;6.19;78.44
57847;BME280;43675;50.030;21.952;2023-02-19T00:46:06;98268.53;;;6.16;78.45
57847;BME280;43675;50.030;21.952;2023-02-19T00:48:33;98270.84;;;6.12;78.33
57847;BME280;43675;50.030;21.952;2023-02-19T00:50:59;98270.63;;;6.09;78.24
57847;BME280;43675;50.030;21.952;2023-02-19T00:53:26;98267.89;;;6.05;78.13
57847;BME280;43675;50.030;21.952;2023-02-19T00:55:52;98267.70;;;6.00;78.09
57847;BME280;43675;50.030;21.952;2023-02-19T00:58:19;98268.25;;;5.96;78.04
57847;BME280;43675;50.030;21.952;2023-02-19T01:00:45;98272.75;;;5.90;77.99
57847;BME280;43675;50.030;21.952;2023-02-19T01:03:12;98261.85;;;5.70;78.11
57847;BME280;43675;50.030;21.952;2023-02-19T01:05:39;98268.93;;;5.49;78.34
57847;BME280;43675;50.030;21.952;2023-02-19T01:08:05;98265.98;;;5.31;78.59
57847;BME280;43675;50.030;21.952;2023-02-19T01:10:32;98267.48;;;5.18;78.66
57847;BME280;43675;50.030;21.952;2023-02-19T01:12:58;98251.85;;;5.08;78.71
57847;BME280;43675;50.030;21.952;2023-02-19T01:15:25;98247.17;;;4.99;78.92
57847;BME280;43675;50.030;21.952;2023-02-19T01:17:51;98240.81;;;4.89;78.98
57847;BME280;43675;50.030;21.952;2023-02-19T01:20:18;98236.14;;;4.75;78.97
57847;BME280;43675;50.030;21.952;2023-02-19T01:22:45;98245.70;;;4.64;78.90
57847;BME280;43675;50.030;21.952;2023-02-19T01:25:11;98244.29;;;4.54;79.07
57847;BME280;43675;50.030;21.952;2023-02-19T01:27:38;98233.78;;;4.47;79.19
57847;BME280;43675;50.030;21.952;2023-02-19T01:30:05;98232.57;;;4.42;79.07
57847;BME280;43675;50.030;21.952;2023-02-19T01:32:31;98226.63;;;4.38;79.07
57847;BME280;43675;50.030;21.952;2023-02-19T01:34:58;98229.27;;;4.33;78.93
57847;BME280;43675;50.030;21.952;2023-02-19T01:37:24;98232.36;;;4.28;79.15
57847;BME280;43675;50.030;21.952;2023-02-19T01:39:51;98236.48;;;4.23;79.41
57847;BME280;43675;50.030;21.952;2023-02-19T01:42:18;98235.81;;;4.20;79.38
57847;BME280;43675;50.030;21.952;2023-02-19T01:47:12;98247.95;;;4.23;79.68
57847;BME280;43675;50.030;21.952;2023-02-19T01:49:50;98247.05;;;4.27;79.78
57847;BME280;43675;50.030;21.952;2023-02-19T01:52:22;98237.80;;;4.35;79.46
57847;BME280;43675;50.030;21.952;2023-02-19T01:54:50;98239.48;;;4.37;79.25
57847;BME280;43675;50.030;21.952;2023-02-19T01:57:22;98243.07;;;4.32;78.90
57847;BME280;43675;50.030;21.952;2023-02-19T01:59:53;98247.23;;;4.28;79.05
57847;BME280;43675;50.030;21.952;2023-02-19T02:02:21;98246.49;;;4.24;79.20
57847;BME280;43675;50.030;21.952;2023-02-19T02:04:48;98246.14;;;4.23;79.12
57847;BME280;43675;50.030;21.952;2023-02-19T02:07:15;98249.04;;;4.22;79.15
57847;BME280;43675;50.030;21.952;2023-02-19T02:09:41;98251.02;;;4.23;79.29
57847;BME280;43675;50.030;21.952;2023-02-19T02:12:08;98245.23;;;4.26;79.13
57847;BME280;43675;50.030;21.952;2023-02-19T02:14:36;98244.40;;;4.27;79.25
57847;BME280;43675;50.030;21.952;2023-02-19T02:25:45;98214.52;;;4.34;78.89
57847;BME280;43675;50.030;21.952;2023-02-19T02:31:40;98213.05;;;4.37;78.91
57847;BME280;43675;50.030;21.952;2023-02-19T02:34:14;98220.02;;;4.40;78.75
57847;BME280;43675;50.030;21.952;2023-02-19T02:36:46;98211.97;;;4.39;78.69
57847;BME280;43675;50.030;21.952;2023-02-19T02:39:18;98211.08;;;4.39;78.79
57847;BME280;43675;50.030;21.952;2023-02-19T02:41:50;98208.29;;;4.40;78.77
57847;BME280;43675;50.030;21.952;2023-02-19T02:44:19;98206.34;;;4.40;78.54
57847;BME280;43675;50.030;21.952;2023-02-19T02:46:46;98211.95;;;4.35;78.45
57847;BME280;43675;50.030;21.952;2023-02-19T02:49:20;98220.14;;;4.30;78.71
57847;BME280;43675;50.030;21.952;2023-02-19T02:51:50;98238.39;;;4.26;78.75
57847;BME280;43675;50.030;21.952;2023-02-19T02:54:44;98246.01;;;4.28;78.87
57847;BME280;43675;50.030;21.952;2023-02-19T02:57:11;98244.29;;;4.32;78.96
57847;BME280;43675;50.030;21.952;2023-02-19T02:59:39;98242.90;;;4.32;78.68
57847;BME280;43675;50.030;21.952;2023-02-19T03:02:09;98244.75;;;4.30;78.77
57847;BME280;43675;50.030;21.952;2023-02-19T03:07:18;98236.21;;;4.26;78.69
57847;BME280;43675;50.030;21.952;2023-02-19T03:09:44;98229.17;;;4.25;78.52
57847;BME280;43675;50.030;21.952;2023-02-19T03:12:14;98228.21;;;4.23;78.92
57847;BME280;43675;50.030;21.952;2023-02-19T03:14:45;98224.29;;;4.20;78.62
57847;BME280;43675;50.030;21.952;2023-02-19T03:17:25;98221.89;;;4.18;78.89
57847;BME280;43675;50.030;21.952;2023-02-19T03:19:55;98226.39;;;4.18;78.66
57847;BME280;43675;50.030;21.952;2023-02-19T03:22:30;98229.31;;;4.20;78.68
57847;BME280;43675;50.030;21.952;2023-02-19T03:25:03;98228.61;;;4.20;78.59
57847;BME280;43675;50.030;21.952;2023-02-19T03:27:32;98232.54;;;4.22;78.66
57847;BME280;43675;50.030;21.952;2023-02-19T03:30:07;98242.76;;;4.23;78.51
57847;BME280;43675;50.030;21.952;2023-02-19T03:32:41;98252.95;;;4.22;78.51
57847;BME280;43675;50.030;21.952;2023-02-19T03:35:22;98249.48;;;4.21;78.54
57847;BME280;43675;50.030;21.952;2023-02-19T03:37:57;98250.04;;;4.21;78.45
57847;BME280;43675;50.030;21.952;2023-02-19T03:40:28;98243.16;;;4.22;78.19
57847;BME280;43675;50.030;21.952;2023-02-19T03:43:08;98242.84;;;4.23;78.07
57847;BME280;43675;50.030;21.952;2023-02-19T03:46:05;98249.75;;;4.26;78.18
57847;BME280;43675;50.030;21.952;2023-02-19T03:48:34;98252.43;;;4.29;78.13
57847;BME280;43675;50.030;21.952;2023-02-19T03:51:19;98254.81;;;4.33;78.25
57847;BME280;43675;50.030;21.952;2023-02-19T03:54:15;98253.94;;;4.34;78.00
57847;BME280;43675;50.030;21.952;2023-02-19T03:57:02;98253.45;;;4.35;78.15
57847;BME280;43675;50.030;21.952;2023-02-19T03:59:40;98247.79;;;4.37;77.98
57847;BME280;43675;50.030;21.952;2023-02-19T04:02:23;98242.00;;;4.38;77.83
57847;BME280;43675;50.030;21.952;2023-02-19T04:05:01;98243.42;;;4.41;77.72
57847;BME280;43675;50.030;21.952;2023-02-19T04:07:29;98242.84;;;4.43;77.62
57847;BME280;43675;50.030;21.952;2023-02-19T04:09:58;98241.90;;;4.40;77.69
57847;BME280;43675;50.030;21.952;2023-02-19T04:12:26;98247.29;;;4.39;77.45
57847;BME280;43675;50.030;21.952;2023-02-19T04:15:06;98247.94;;;4.39;77.33
57847;BME280;43675;50.030;21.952;2023-02-19T04:17:39;98247.11;;;4.38;77.27
57847;BME280;43675;50.030;21.952;2023-02-19T04:20:09;98246.17;;;4.38;77.11
57847;BME280;43675;50.030;21.952;2023-02-19T04:22:38;98243.29;;;4.39;77.25
57847;BME280;43675;50.030;21.952;2023-02-19T04:25:06;98246.34;;;4.41;77.28
57847;BME280;43675;50.030;21.952;2023-02-19T04:27:40;98243.38;;;4.44;77.01
57847;BME280;43675;50.030;21.952;2023-02-19T04:30:12;98246.40;;;4.44;77.09
57847;BME280;43675;50.030;21.952;2023-02-19T04:32:39;98243.46;;;4.45;77.13
57847;BME280;43675;50.030;21.952;2023-02-19T04:35:06;98246.86;;;4.44;76.92
57847;BME280;43675;50.030;21.952;2023-02-19T04:37:32;98241.30;;;4.44;77.03
57847;BME280;43675;50.030;21.952;2023-02-19T04:39:59;98238.55;;;4.44;77.04
57847;BME280;43675;50.030;21.952;2023-02-19T04:42:25;98235.80;;;4.45;77.04
57847;BME280;43675;50.030;21.952;2023-02-19T04:44:52;98234.74;;;4.46;77.00
57847;BME280;43675;50.030;21.952;2023-02-19T04:47:18;98238.15;;;4.48;76.91
57847;BME280;43675;50.030;21.952;2023-02-19T04:49:45;98238.36;;;4.49;76.86
57847;BME280;43675;50.030;21.952;2023-02-19T04:52:12;98242.64;;;4.50;76.90
57847;BME280;43675;50.030;21.952;2023-02-19T04:54:38;98247.39;;;4.52;76.98
57847;BME280;43675;50.030;21.952;2023-02-19T04:57:05;98243.56;;;4.52;76.97
57847;BME280;43675;50.030;21.952;2023-02-19T04:59:32;98243.70;;;4.54;76.97
57847;BME280;43675;50.030;21.952;2023-02-19T05:01:58;98247.40;;;4.56;76.84
57847;BME280;43675;50.030;21.952;2023-02-19T05:04:25;98252.08;;;4.57;76.81
57847;BME280;43675;50.030;21.952;2023-02-19T05:06:51;98255.16;;;4.58;76.75
57847;BME280;43675;50.030;21.952;2023-02-19T05:09:18;98260.36;;;4.59;77.04
57847;BME280;43675;50.030;21.952;2023-02-19T05:11:45;98261.55;;;4.59;77.05
57847;BME280;43675;50.030;21.952;2023-02-19T05:14:12;98261.20;;;4.60;76.90
57847;BME280;43675;50.030;21.952;2023-02-19T05:16:38;98262.56;;;4.61;76.91
57847;BME280;43675;50.030;21.952;2023-02-19T05:19:05;98255.57;;;4.61;76.78
57847;BME280;43675;50.030;21.952;2023-02-19T05:21:31;98251.25;;;4.62;76.61
57847;BME280;43675;50.030;21.952;2023-02-19T05:23:58;98251.00;;;4.62;76.77
57847;BME280;43675;50.030;21.952;2023-02-19T05:26:25;98249.25;;;4.64;76.84
57847;BME280;43675;50.030;21.952;2023-02-19T05:28:52;98243.63;;;4.65;76.86
57847;BME280;43675;50.030;21.952;2023-02-19T05:31:19;98238.83;;;4.66;76.71
57847;BME280;43675;50.030;21.952;2023-02-19T05:33:46;98234.91;;;4.68;76.79
57847;BME280;43675;50.030;21.952;2023-02-19T05:36:13;98236.36;;;4.69;76.86
57847;BME280;43675;50.030;21.952;2023-02-19T05:38:40;98229.28;;;4.69;76.71
57847;BME280;43675;50.030;21.952;2023-02-19T05:41:12;98229.38;;;4.70;76.57
57847;BME280;43675;50.030;21.952;2023-02-19T05:43:40;98225.82;;;4.71;76.68
57847;BME280;43675;50.030;21.952;2023-02-19T05:46:08;98232.39;;;4.73;76.77
57847;BME280;43675;50.030;21.952;2023-02-19T05:48:35;98228.86;;;4.72;76.67
57847;BME280;43675;50.030;21.952;2023-02-19T05:51:04;98224.64;;;4.72;76.79
57847;BME280;43675;50.030;21.952;2023-02-19T05:53:31;98227.48;;;4.72;76.79
57847;BME280;43675;50.030;21.952;2023-02-19T05:55:58;98226.86;;;4.73;76.76
57847;BME280;43675;50.030;21.952;2023-02-19T05:58:26;98231.11;;;4.73;76.94
57847;BME280;43675;50.030;21.952;2023-02-19T06:00:53;98227.84;;;4.72;76.81
57847;BME280;43675;50.030;21.952;2023-02-19T06:03:20;98219.63;;;4.72;76.77
57847;BME280;43675;50.030;21.952;2023-02-19T06:05:47;98213.34;;;4.73;77.03
57847;BME280;43675;50.030;21.952;2023-02-19T06:08:15;98209.34;;;4.74;76.85
57847;BME280;43675;50.030;21.952;2023-02-19T06:10:42;98212.80;;;4.76;76.99
57847;BME280;43675;50.030;21.952;2023-02-19T06:13:09;98208.08;;;4.77;77.10
57847;BME280;43675;50.030;21.952;2023-02-19T06:15:36;98206.43;;;4.78;77.03
57847;BME280;43675;50.030;21.952;2023-02-19T06:18:03;98206.35;;;4.78;76.96
57847;BME280;43675;50.030;21.952;2023-02-19T06:20:30;98208.33;;;4.79;77.22
57847;BME280;43675;50.030;21.952;2023-02-19T06:22:56;98203.27;;;4.80;77.19
57847;BME280;43675;50.030;21.952;2023-02-19T06:25:23;98204.64;;;4.82;77.37
57847;BME280;43675;50.030;21.952;2023-02-19T06:27:50;98199.98;;;4.84;77.21
57847;BME280;43675;50.030;21.952;2023-02-19T06:30:16;98197.80;;;4.86;77.30
57847;BME280;43675;50.030;21.952;2023-02-19T06:32:43;98193.42;;;4.87;77.30
57847;BME280;43675;50.030;21.952;2023-02-19T06:35:09;98192.58;;;4.88;77.22
57847;BME280;43675;50.030;21.952;2023-02-19T06:37:36;98193.05;;;4.90;77.48
57847;BME280;43675;50.030;21.952;2023-02-19T06:40:03;98183.48;;;4.91;77.47
57847;BME280;43675;50.030;21.952;2023-02-19T06:42:32;98181.51;;;4.93;77.34
57847;BME280;43675;50.030;21.952;2023-02-19T06:44:59;98174.04;;;4.95;77.39
57847;BME280;43675;50.030;21.952;2023-02-19T06:47:25;98167.83;;;4.96;77.56
57847;BME280;43675;50.030;21.952;2023-02-19T06:49:54;98168.75;;;4.98;77.40
57847;BME280;43675;50.030;21.952;2023-02-19T06:52:21;98165.78;;;5.01;77.48
57847;BME280;43675;50.030;21.952;2023-02-19T06:54:47;98165.98;;;5.02;77.52
57847;BME280;43675;50.030;21.952;2023-02-19T06:57:14;98166.33;;;5.02;77.47
57847;BME280;43675;50.030;21.952;2023-02-19T06:59:40;98163.77;;;5.04;77.49
57847;BME280;43675;50.030;21.952;2023-02-19T07:02:10;98159.85;;;5.05;77.66
57847;BME280;43675;50.030;21.952;2023-02-19T07:04:37;98160.41;;;5.09;77.67
57847;BME280;43675;50.030;21.952;2023-02-19T07:07:04;98160.52;;;5.14;77.53
57847;BME280;43675;50.030;21.952;2023-02-19T07:09:31;98159.86;;;5.17;77.57
57847;BME280;43675;50.030;21.952;2023-02-19T07:11:57;98153.40;;;5.18;77.49
57847;BME280;43675;50.030;21.952;2023-02-19T07:14:24;98154.86;;;5.21;77.53
57847;BME280;43675;50.030;21.952;2023-02-19T07:16:50;98159.02;;;5.23;77.54
57847;BME280;43675;50.030;21.952;2023-02-19T07:19:17;98157.07;;;5.27;77.72
57847;BME280;43675;50.030;21.952;2023-02-19T07:21:43;98145.35;;;5.30;77.54
57847;BME280;43675;50.030;21.952;2023-02-19T07:24:10;98150.36;;;5.34;77.62
57847;BME280;43675;50.030;21.952;2023-02-19T07:26:37;98152.11;;;5.37;77.83
57847;BME280;43675;50.030;21.952;2023-02-19T07:29:04;98149.59;;;5.41;77.79
57847;BME280;43675;50.030;21.952;2023-02-19T07:31:30;98148.61;;;5.44;77.69
57847;BME280;43675;50.030;21.952;2023-02-19T07:33:57;98148.01;;;5.47;77.68
57847;BME280;43675;50.030;21.952;2023-02-19T07:36:24;98144.13;;;5.50;77.77
57847;BME280;43675;50.030;21.952;2023-02-19T07:38:55;98142.84;;;5.54;77.77
57847;BME280;43675;50.030;21.952;2023-02-19T07:41:22;98141.31;;;5.59;77.70
57847;BME280;43675;50.030;21.952;2023-02-19T07:43:49;98140.89;;;5.61;77.68
57847;BME280;43675;50.030;21.952;2023-02-19T07:46:16;98132.48;;;5.61;77.76
57847;BME280;43675;50.030;21.952;2023-02-19T07:48:43;98122.98;;;5.63;77.86
57847;BME280;43675;50.030;21.952;2023-02-19T07:51:16;98122.45;;;5.69;77.95
57847;BME280;43675;50.030;21.952;2023-02-19T07:53:45;98117.61;;;5.75;77.96
57847;BME280;43675;50.030;21.952;2023-02-19T07:56:12;98117.11;;;5.80;77.89
57847;BME280;43675;50.030;21.952;2023-02-19T07:58:39;98116.77;;;5.84;77.88
57847;BME280;43675;50.030;21.952;2023-02-19T08:01:13;98122.27;;;5.91;77.85
57847;BME280;43675;50.030;21.952;2023-02-19T08:03:40;98122.40;;;5.91;77.89
57847;BME280;43675;50.030;21.952;2023-02-19T08:06:09;98123.61;;;5.96;78.02
57847;BME280;43675;50.030;21.952;2023-02-19T08:08:37;98128.62;;;6.03;77.97
57847;BME280;43675;50.030;21.952;2023-02-19T08:11:04;98125.61;;;6.18;77.93
57847;BME280;43675;50.030;21.952;2023-02-19T08:13:31;98125.27;;;6.25;77.83
57847;BME280;43675;50.030;21.952;2023-02-19T08:18:26;98125.31;;;6.37;77.96
57847;BME280;43675;50.030;21.952;2023-02-19T08:20:56;98118.88;;;6.42;77.83
57847;BME280;43675;50.030;21.952;2023-02-19T08:23:24;98127.58;;;6.48;77.64
57847;BME280;43675;50.030;21.952;2023-02-19T08:25:52;98127.75;;;6.50;77.61
57847;BME280;43675;50.030;21.952;2023-02-19T08:28:19;98124.96;;;6.46;77.45
57847;BME280;43675;50.030;21.952;2023-02-19T08:30:46;98135.80;;;6.39;77.38
57847;BME280;43675;50.030;21.952;2023-02-19T08:33:15;98135.11;;;6.26;77.28
57847;BME280;43675;50.030;21.952;2023-02-19T08:35:43;98120.75;;;6.11;77.51
57847;BME280;43675;50.030;21.952;2023-02-19T08:38:11;98136.95;;;6.01;77.62
57847;BME280;43675;50.030;21.952;2023-02-19T08:40:39;98134.33;;;5.88;77.73
57847;BME280;43675;50.030;21.952;2023-02-19T08:43:09;98139.16;;;5.75;78.05
57847;BME280;43675;50.030;21.952;2023-02-19T08:45:36;98148.14;;;5.78;77.95
57847;BME280;43675;50.030;21.952;2023-02-19T08:48:04;98145.09;;;5.79;77.86
57847;BME280;43675;50.030;21.952;2023-02-19T08:50:31;98147.13;;;5.70;77.95
57847;BME280;43675;50.030;21.952;2023-02-19T08:52:58;98151.15;;;5.66;78.11
57847;BME280;43675;50.030;21.952;2023-02-19T08:55:25;98148.67;;;5.69;78.17
57847;BME280;43675;50.030;21.952;2023-02-19T08:57:52;98150.58;;;5.74;78.01
57847;BME280;43675;50.030;21.952;2023-02-19T09:00:19;98145.98;;;5.72;78.04
57847;BME280;43675;50.030;21.952;2023-02-19T09:02:47;98145.34;;;5.74;78.20
57847;BME280;43675;50.030;21.952;2023-02-19T09:05:14;98150.37;;;5.80;78.22
57847;BME280;43675;50.030;21.952;2023-02-19T09:07:41;98152.32;;;5.87;78.18
57847;BME280;43675;50.030;21.952;2023-02-19T09:10:13;98149.75;;;5.95;78.17
57847;BME280;43675;50.030;21.952;2023-02-19T09:12:40;98151.80;;;6.03;78.13
57847;BME280;43675;50.030;21.952;2023-02-19T09:15:07;98143.45;;;6.11;78.11
57847;BME280;43675;50.030;21.952;2023-02-19T09:17:34;98144.51;;;6.16;77.97
57847;BME280;43675;50.030;21.952;2023-02-19T09:20:00;98138.61;;;6.19;78.01
57847;BME280;43675;50.030;21.952;2023-02-19T09:22:27;98140.70;;;6.10;78.27
57847;BME280;43675;50.030;21.952;2023-02-19T09:24:54;98142.25;;;5.97;78.43
57847;BME280;43675;50.030;21.952;2023-02-19T09:27:20;98144.91;;;5.83;78.28
57847;BME280;43675;50.030;21.952;2023-02-19T09:29:47;98143.98;;;5.73;78.60
57847;BME280;43675;50.030;21.952;2023-02-19T09:32:13;98142.30;;;5.65;78.71
57847;BME280;43675;50.030;21.952;2023-02-19T09:34:40;98142.10;;;5.58;78.89
57847;BME280;43675;50.030;21.952;2023-02-19T09:37:07;98141.85;;;5.51;78.95
57847;BME280;43675;50.030;21.952;2023-02-19T09:39:34;98141.52;;;5.45;79.17
57847;BME280;43675;50.030;21.952;2023-02-19T09:42:14;98143.98;;;5.44;79.18
57847;BME280;43675;50.030;21.952;2023-02-19T09:44:45;98140.34;;;5.45;79.32
57847;BME280;43675;50.030;21.952;2023-02-19T09:47:20;98139.13;;;5.48;79.44
57847;BME280;43675;50.030;21.952;2023-02-19T09:49:51;98140.95;;;5.53;79.39
57847;BME280;43675;50.030;21.952;2023-02-19T09:57:42;98147.82;;;5.44;79.15
57847;BME280;43675;50.030;21.952;2023-02-19T10:02:37;98153.83;;;5.25;79.44
57847;BME280;43675;50.030;21.952;2023-02-19T10:05:12;98155.78;;;5.14;79.58
57847;BME280;43675;50.030;21.952;2023-02-19T10:07:45;98158.27;;;5.16;79.43
57847;BME280;43675;50.030;21.952;2023-02-19T10:12:47;98148.49;;;5.31;79.21
57847;BME280;43675;50.030;21.952;2023-02-19T10:17:53;98150.48;;;5.39;79.15
57847;BME280;43675;50.030;21.952;2023-02-19T10:20:21;98154.27;;;5.48;79.12
57847;BME280;43675;50.030;21.952;2023-02-19T10:23:01;98152.05;;;5.52;79.08
57847;BME280;43675;50.030;21.952;2023-02-19T10:25:29;98153.45;;;5.42;79.16
57847;BME280;43675;50.030;21.952;2023-02-19T10:28:01;98154.64;;;5.42;79.38
57847;BME280;43675;50.030;21.952;2023-02-19T10:30:31;98151.26;;;5.44;79.02
57847;BME280;43675;50.030;21.952;2023-02-19T10:33:01;98147.09;;;5.44;79.19
57847;BME280;43675;50.030;21.952;2023-02-19T10:35:29;98149.48;;;5.48;79.19
57847;BME280;43675;50.030;21.952;2023-02-19T10:38:00;98151.35;;;5.39;79.07
57847;BME280;43675;50.030;21.952;2023-02-19T10:40:27;98150.50;;;5.18;79.35
57847;BME280;43675;50.030;21.952;2023-02-19T10:43:03;98151.45;;;5.00;79.57
57847;BME280;43675;50.030;21.952;2023-02-19T10:46:06;98150.84;;;5.00;79.68
57847;BME280;43675;50.030;21.952;2023-02-19T10:48:48;98154.41;;;4.87;79.80
57847;BME280;43675;50.030;21.952;2023-02-19T10:51:18;98159.48;;;4.74;79.95
57847;BME280;43675;50.030;21.952;2023-02-19T10:53:47;98159.20;;;4.78;79.87
57847;BME280;43675;50.030;21.952;2023-02-19T10:56:15;98157.15;;;4.82;79.74
57847;BME280;43675;50.030;21.952;2023-02-19T10:58:47;98153.80;;;4.82;79.60
57847;BME280;43675;50.030;21.952;2023-02-19T11:01:24;98153.42;;;4.81;79.45
57847;BME280;43675;50.030;21.952;2023-02-19T11:03:52;98156.16;;;4.73;79.61
57847;BME280;43675;50.030;21.952;2023-02-19T11:06:38;98160.02;;;4.50;79.61
57847;BME280;43675;50.030;21.952;2023-02-19T11:09:05;98163.81;;;4.34;80.02
57847;BME280;43675;50.030;21.952;2023-02-19T11:11:49;98165.40;;;4.20;80.41
57847;BME280;43675;50.030;21.952;2023-02-19T11:14:19;98165.20;;;4.23;80.45
57847;BME280;43675;50.030;21.952;2023-02-19T11:16:49;98167.42;;;4.15;80.41
57847;BME280;43675;50.030;21.952;2023-02-19T11:19:35;98168.56;;;4.08;80.75
57847;BME280;43675;50.030;21.952;2023-02-19T11:22:36;98166.17;;;3.99;80.68
57847;BME280;43675;50.030;21.952;2023-02-19T11:25:22;98168.30;;;3.88;80.95
57847;BME280;43675;50.030;21.952;2023-02-19T11:27:56;98176.09;;;3.77;81.13
57847;BME280;43675;50.030;21.952;2023-02-19T11:35:38;98175.59;;;3.10;81.22
57847;BME280;43675;50.030;21.952;2023-02-19T11:38:08;98180.86;;;3.02;81.45
57847;BME280;43675;50.030;21.952;2023-02-19T11:41:08;98185.45;;;2.99;81.93
57847;BME280;43675;50.030;21.952;2023-02-19T11:43:52;98184.83;;;3.01;82.26
57847;BME280;43675;50.030;21.952;2023-02-19T11:57:46;98203.13;;;3.03;82.11
57847;BME280;43675;50.030;21.952;2023-02-19T12:00:28;98202.25;;;3.03;82.64
57847;BME280;43675;50.030;21.952;2023-02-19T12:08:59;98207.90;;;2.99;82.66
57847;BME280;43675;50.030;21.952;2023-02-19T12:11:43;98210.23;;;2.97;82.76
57847;BME280;43675;50.030;21.952;2023-02-19T12:14:39;98215.44;;;2.95;82.61
57847;BME280;43675;50.030;21.952;2023-02-19T12:20:27;98218.87;;;2.93;82.62
57847;BME280;43675;50.030;21.952;2023-02-19T12:45:05;98242.73;;;3.09;82.92
57847;BME280;43675;50.030;21.952;2023-02-19T12:47:39;98244.62;;;3.19;82.89
57847;BME280;43675;50.030;21.952;2023-02-19T12:50:18;98250.05;;;3.31;82.98
57847;BME280;43675;50.030;21.952;2023-02-19T12:52:57;98257.45;;;3.34;82.50
57847;BME280;43675;50.030;21.952;2023-02-19T12:55:32;98246.37;;;3.26;82.62
57847;BME280;43675;50.030;21.952;2023-02-19T12:58:02;98244.02;;;3.25;82.63
57847;BME280;43675;50.030;21.952;2023-02-19T13:00:52;98242.65;;;3.46;82.58
57847;BME280;43675;50.030;21.952;2023-02-19T13:03:36;98243.42;;;3.69;82.29
57847;BME280;43675;50.030;21.952;2023-02-19T13:06:13;98248.36;;;3.86;81.90
57847;BME280;43675;50.030;21.952;2023-02-19T13:08:51;98248.40;;;4.00;81.75
57847;BME280;43675;50.030;21.952;2023-02-19T13:11:27;98245.60;;;4.10;81.61
57847;BME280;43675;50.030;21.952;2023-02-19T13:16:48;98245.41;;;4.36;81.32
57847;BME280;43675;50.030;21.952;2023-02-19T13:19:16;98244.72;;;4.46;80.90
57847;BME280;43675;50.030;21.952;2023-02-19T13:21:43;98245.56;;;4.49;80.77
57847;BME280;43675;50.030;21.952;2023-02-19T13:24:20;98245.11;;;4.56;80.81
57847;BME280;43675;50.030;21.952;2023-02-19T13:30:05;98251.32;;;4.61;80.61
57847;BME280;43675;50.030;21.952;2023-02-19T13:38:11;98257.06;;;4.46;81.16
57847;BME280;43675;50.030;21.952;2023-02-19T13:40:39;98264.73;;;4.69;81.29
57847;BME280;43675;50.030;21.952;2023-02-19T13:43:23;98268.23;;;4.92;80.68
57847;BME280;43675;50.030;21.952;2023-02-19T13:46:04;98272.63;;;5.15;80.34
57847;BME280;43675;50.030;21.952;2023-02-19T13:48:37;98281.12;;;5.25;79.89
57847;BME280;43675;50.030;21.952;2023-02-19T14:30:34;98326.40;;;4.45;78.33
57847;BME280;43675;50.030;21.952;2023-02-19T14:33:09;98325.23;;;4.51;78.28
57847;BME280;43675;50.030;21.952;2023-02-19T14:36:01;98331.86;;;4.40;78.28
57847;BME280;43675;50.030;21.952;2023-02-19T14:38:39;98343.86;;;4.18;78.66
57847;BME280;43675;50.030;21.952;2023-02-19T14:41:10;98346.31;;;4.07;78.60
57847;BME280;43675;50.030;21.952;2023-02-19T14:43:38;98346.92;;;4.05;78.57
57847;BME280;43675;50.030;21.952;2023-02-19T14:46:19;98346.76;;;3.92;78.54
57847;BME280;43675;50.030;21.952;2023-02-19T14:48:49;98346.36;;;3.72;78.86
57847;BME280;43675;50.030;21.952;2023-02-19T14:51:38;98348.81;;;3.62;79.17
57847;BME280;43675;50.030;21.952;2023-02-19T14:54:15;98350.67;;;3.52;79.32
57847;BME280;43675;50.030;21.952;2023-02-19T14:56:47;98347.99;;;3.43;79.27
57847;BME280;43675;50.030;21.952;2023-02-19T15:01:52;98355.25;;;3.34;79.23
57847;BME280;43675;50.030;21.952;2023-02-19T15:04:25;98366.92;;;3.29;79.62
57847;BME280;43675;50.030;21.952;2023-02-19T15:06:56;98370.67;;;3.29;79.61
57847;BME280;43675;50.030;21.952;2023-02-19T15:09:33;98368.95;;;3.27;79.56
57847;BME280;43675;50.030;21.952;2023-02-19T15:12:02;98372.52;;;3.25;79.43
57847;BME280;43675;50.030;21.952;2023-02-19T15:14:29;98376.23;;;3.25;79.62
57847;BME280;43675;50.030;21.952;2023-02-19T15:17:00;98369.85;;;3.18;79.80
57847;BME280;43675;50.030;21.952;2023-02-19T15:19:32;98376.00;;;3.14;79.96
57847;BME280;43675;50.030;21.952;2023-02-19T15:21:59;98377.38;;;3.11;79.94
57847;BME280;43675;50.030;21.952;2023-02-19T15:24:25;98385.17;;;3.09;79.92
57847;BME280;43675;50.030;21.952;2023-02-19T15:26:55;98387.88;;;3.06;79.96
57847;BME280;43675;50.030;21.952;2023-02-19T15:29:24;98397.02;;;3.02;80.24
57847;BME280;43675;50.030;21.952;2023-02-19T15:36:51;98407.61;;;2.95;80.55